Terminal Aerodrome Forecast
Issued by NWS

Home | Current Version | Previous Version | Text Only | Print | Product List | Glossary On
Versions: 1 2 3 4 5 6 7 8 9 10 11 12 13 14 15 16 17 18 19 20
627
FTUS43 KLSX 161726
TAFSUS
TAF
KSUS 161726Z 1618/1718 00000KT P6SM FEW250
     FM170900 14006KT P6SM BKN090
     FM171400 16009KT P6SM VCSH OVC020=

USA.gov is the U.S. government's official web portal to all federal, state and local government web resources and services.